createdAt,value
2023-03-19T00:58:22.256Z,99132.91
2023-03-19T01:00:54.645Z,99128.71
2023-03-19T01:03:23.618Z,99131.71
2023-03-19T01:05:52.098Z,99123.54
2023-03-19T01:08:20.726Z,99121.69
2023-03-19T01:10:49.053Z,99123.70
2023-03-19T01:13:17.742Z,99120.86
2023-03-19T01:15:46.938Z,99122.67
2023-03-19T01:18:15.737Z,99122.70
2023-03-19T01:20:47.187Z,99121.71
2023-03-19T01:23:16.091Z,99121.69
2023-03-19T01:25:44.860Z,99122.47
2023-03-19T01:28:13.369Z,99119.14
2023-03-19T01:30:43.153Z,99114.98
2023-03-19T01:33:34.385Z,99118.88
2023-03-19T01:36:09.241Z,99117.24
2023-03-19T01:38:56.614Z,99116.98
2023-03-19T01:41:26.014Z,99117.77
2023-03-19T01:43:57.074Z,99116.35
2023-03-19T01:46:38.090Z,99117.16
2023-03-19T01:49:35.502Z,99114.66
2023-03-19T01:52:14.758Z,99112.80
2023-03-19T01:55:17.618Z,99109.91
2023-03-19T01:57:51.758Z,99111.36
2023-03-19T02:00:39.352Z,99109.21
2023-03-19T02:03:08.494Z,99107.71
2023-03-19T02:06:02.618Z,99109.78
2023-03-19T02:08:31.355Z,99108.16
2023-03-19T02:11:00.528Z,99106.61
2023-03-19T02:13:29.137Z,99108.30
2023-03-19T02:15:57.518Z,99107.73
2023-03-19T02:18:27.895Z,99115.77
2023-03-19T02:21:03.311Z,99113.04
2023-03-19T02:23:44.113Z,99113.73
2023-03-19T02:26:16.756Z,99113.89
2023-03-19T02:28:47.107Z,99111.43
2023-03-19T02:31:18.656Z,99113.83
2023-03-19T02:34:06.308Z,99113.39
2023-03-19T02:36:47.401Z,99113.23
2023-03-19T02:39:41.767Z,99116.80
2023-03-19T02:42:11.982Z,99116.64
2023-03-19T02:44:40.502Z,99114.91
2023-03-19T02:47:09.865Z,99116.34
2023-03-19T02:49:38.756Z,99113.05
2023-03-19T02:52:07.775Z,99107.92
2023-03-19T02:54:35.988Z,99106.48
2023-03-19T02:57:04.643Z,99102.68
2023-03-19T02:59:39.229Z,99102.57
2023-03-19T03:02:08.763Z,99102.89
2023-03-19T03:04:37.551Z,99102.87
2023-03-19T03:07:06.318Z,99099.48
2023-03-19T03:09:35.911Z,99097.98
2023-03-19T03:12:05.038Z,99102.93
2023-03-19T03:14:33.855Z,99101.29
2023-03-19T03:17:02.413Z,99103.35
2023-03-19T03:19:34.659Z,99100.69
2023-03-19T03:22:05.905Z,99097.75
2023-03-19T03:24:34.538Z,99094.58
2023-03-19T03:27:06.800Z,99092.21
2023-03-19T03:29:36.976Z,99089.41
2023-03-19T03:32:07.304Z,99091.91
2023-03-19T03:34:36.599Z,99091.27
2023-03-19T03:37:04.833Z,99089.40
2023-03-19T03:39:33.276Z,99091.41
2023-03-19T03:42:01.754Z,99098.23
2023-03-19T03:44:31.678Z,99096.49
2023-03-19T03:47:05.050Z,99095.25
2023-03-19T03:49:33.728Z,99095.75
2023-03-19T03:52:02.375Z,99101.33
2023-03-19T03:54:32.969Z,99104.72
2023-03-19T03:57:03.480Z,99104.41
2023-03-19T03:59:38.124Z,99101.48
2023-03-19T04:02:06.972Z,99096.89
2023-03-19T04:04:36.387Z,99096.38
2023-03-19T04:07:05.020Z,99095.29
2023-03-19T04:09:46.809Z,99093.02
2023-03-19T04:12:15.140Z,99095.02
2023-03-19T04:14:49.821Z,99095.34
2023-03-19T04:17:18.582Z,99092.67
2023-03-19T04:19:47.880Z,99098.52
2023-03-19T04:22:19.008Z,99098.77
2023-03-19T04:24:48.704Z,99099.48
2023-03-19T04:27:17.192Z,99092.23
2023-03-19T04:29:45.998Z,99092.96
2023-03-19T04:32:15.534Z,99095.52
2023-03-19T04:34:47.158Z,99094.25
2023-03-19T04:37:16.123Z,99100.28
2023-03-19T04:39:48.186Z,99101.28
2023-03-19T04:42:17.489Z,99099.44
2023-03-19T04:44:51.600Z,99100.41
2023-03-19T04:47:24.217Z,99093.81
2023-03-19T04:50:01.465Z,99097.38
2023-03-19T04:52:31.996Z,99102.14
2023-03-19T04:55:00.678Z,99101.17
2023-03-19T04:57:30.176Z,99097.48
2023-03-19T04:59:59.316Z,99095.88
2023-03-19T05:02:28.277Z,99098.44
2023-03-19T05:04:56.427Z,99097.69
2023-03-19T05:07:25.038Z,99102.10
2023-03-19T05:09:54.631Z,99098.48
2023-03-19T05:12:27.109Z,99100.41
2023-03-19T05:14:58.076Z,99099.86
2023-03-19T05:17:37.432Z,99099.86
2023-03-19T05:20:25.739Z,99102.56
2023-03-19T05:22:58.594Z,99103.71
2023-03-19T05:25:36.154Z,99105.04
2023-03-19T05:28:05.499Z,99102.23
2023-03-19T05:30:34.924Z,99099.64
2023-03-19T05:33:23.151Z,99098.16
2023-03-19T05:35:53.200Z,99098.77
2023-03-19T05:38:29.310Z,99098.83
2023-03-19T05:41:05.353Z,99097.63
2023-03-19T05:43:41.856Z,99096.20
2023-03-19T05:46:14.213Z,99094.48
2023-03-19T05:48:42.423Z,99094.23
2023-03-19T05:51:16.247Z,99101.08
2023-03-19T05:53:47.041Z,99101.11
2023-03-19T06:14:41.631Z,99108.20
2023-03-19T07:43:37.527Z,99139.19
2023-03-19T10:20:36.644Z,99084.65
2023-03-19T13:05:23.320Z,98956.86
2023-03-19T13:07:58.734Z,98953.05
2023-03-19T13:10:27.184Z,98955.58
2023-03-19T13:12:57.313Z,98954.92
2023-03-19T13:15:27.938Z,98954.23
2023-03-19T13:18:24.997Z,98953.40
2023-03-19T13:21:02.686Z,98951.09
2023-03-19T13:23:34.236Z,98944.25
2023-03-19T13:26:10.008Z,98940.17
2023-03-19T13:28:53.373Z,98940.91
2023-03-19T13:31:24.308Z,98937.86
2023-03-19T13:34:20.290Z,98934.84
2023-03-19T13:37:12.580Z,98930.95
2023-03-19T13:39:42.362Z,98929.90
2023-03-19T13:42:20.248Z,98927.14
2023-03-19T13:44:55.303Z,98925.70
2023-03-19T13:47:26.804Z,98921.30
2023-03-19T13:50:18.283Z,98920.73
2023-03-19T13:52:50.580Z,98914.37
2023-03-19T13:55:24.694Z,98912.20
2023-03-19T13:58:12.493Z,98911.30
2023-03-19T14:00:45.261Z,98910.13
2023-03-19T14:03:23.998Z,98911.79
2023-03-19T14:05:56.597Z,98908.17
2023-03-19T14:08:30.141Z,98905.42
2023-03-19T14:10:59.988Z,98902.10
2023-03-19T14:13:34.102Z,98900.81
2023-03-19T14:16:17.010Z,98896.96
2023-03-19T14:18:45.866Z,98893.27
2023-03-19T14:21:22.783Z,98895.55
2023-03-19T14:23:55.024Z,98892.58
2023-03-19T14:26:24.521Z,98892.17
2023-03-19T14:29:05.383Z,98886.13
2023-03-19T14:31:58.395Z,98889.10
2023-03-19T14:34:35.019Z,98890.03
2023-03-19T14:37:25.254Z,98887.27
2023-03-19T14:40:04.737Z,98884.69
2023-03-19T14:42:50.481Z,98883.81
2023-03-19T14:45:47.105Z,98879.32
2023-03-19T14:48:36.146Z,98875.57
2023-03-19T14:51:13.436Z,98879.97
2023-03-19T14:53:46.617Z,98881.34
2023-03-19T14:56:23.392Z,98878.53
2023-03-19T14:58:54.093Z,98882.36
2023-03-19T15:01:30.017Z,98882.84
2023-03-19T15:04:04.117Z,98884.96
2023-03-19T15:06:35.593Z,98888.65
2023-03-19T15:09:27.290Z,98890.08
2023-03-19T15:12:16.632Z,98883.87
2023-03-19T15:14:54.110Z,98891.99
2023-03-19T15:17:24.868Z,98893.70
2023-03-19T15:19:53.647Z,98899.29
2023-03-19T15:22:31.434Z,98901.03
2023-03-19T15:25:11.399Z,98901.27
2023-03-19T15:27:40.103Z,98897.77
2023-03-19T15:30:29.407Z,98895.28
2023-03-19T15:33:12.015Z,98896.71
2023-03-19T15:35:46.516Z,98897.83
2023-03-19T15:38:16.511Z,98899.41
2023-03-19T15:40:44.874Z,98894.55
2023-03-19T15:43:13.497Z,98895.27
2023-03-19T15:45:46.663Z,98893.30
2023-03-19T15:48:26.314Z,98891.27
2023-03-19T15:50:58.120Z,98884.45
2023-03-19T15:53:28.537Z,98877.78
2023-03-19T15:55:58.101Z,98881.71
2023-03-19T15:58:28.714Z,98886.27
2023-03-19T16:00:59.510Z,98896.53
2023-03-19T16:04:02.136Z,98901.20
2023-03-19T16:06:32.243Z,98904.11
2023-03-19T16:09:25.098Z,98898.35
2023-03-19T16:11:56.103Z,98892.30
2023-03-19T16:14:39.874Z,98893.49
2023-03-19T16:17:14.344Z,98899.44
2023-03-19T16:19:58.756Z,98905.91
2023-03-19T16:22:32.621Z,98906.19
2023-03-19T16:25:02.784Z,98906.17
2023-03-19T16:27:36.171Z,98906.38
2023-03-19T16:30:26.275Z,98908.69
2023-03-19T16:33:03.054Z,98904.51
2023-03-19T16:35:35.039Z,98904.27
2023-03-19T16:45:27.275Z,98898.44
2023-03-19T16:48:01.021Z,98898.55
2023-03-19T16:50:35.660Z,98900.13
2023-03-19T16:53:05.779Z,98898.31
2023-03-19T16:55:36.724Z,98897.17
2023-03-19T16:58:17.126Z,98896.56
2023-03-19T17:00:46.147Z,98892.30
2023-03-19T17:03:17.682Z,98889.04
2023-03-19T17:05:46.775Z,98886.16
2023-03-19T17:08:17.766Z,98893.95
2023-03-19T17:10:49.561Z,98893.77
2023-03-19T17:13:20.740Z,98895.15
2023-03-19T17:15:50.525Z,98897.41
2023-03-19T17:18:24.501Z,98891.37
2023-03-19T17:21:00.025Z,98895.34
2023-03-19T17:23:30.559Z,98896.31
2023-03-19T17:25:59.691Z,98898.95
2023-03-19T17:28:32.679Z,98903.70
2023-03-19T17:31:01.254Z,98903.26
2023-03-19T17:33:32.854Z,98899.52
2023-03-19T17:36:01.303Z,98893.70
2023-03-19T17:38:34.070Z,98890.77
2023-03-19T17:41:05.726Z,98893.73
2023-03-19T17:43:34.208Z,98893.40
2023-03-19T17:46:02.961Z,98898.77
2023-03-19T17:48:31.296Z,98893.05
2023-03-19T17:51:02.380Z,98890.13
2023-03-19T17:53:30.898Z,98891.27
2023-03-19T17:56:00.578Z,98893.52
2023-03-19T17:58:32.826Z,98889.00
2023-03-19T18:01:03.467Z,98891.83
2023-03-19T18:03:36.648Z,98893.30
2023-03-19T18:06:09.382Z,98888.64
2023-03-19T18:08:38.556Z,98885.95
2023-03-19T18:11:06.862Z,98884.15
2023-03-19T18:13:38.093Z,98882.27
2023-03-19T18:16:12.584Z,98879.73
2023-03-19T18:18:41.315Z,98886.18
2023-03-19T18:21:14.080Z,98889.95
2023-03-19T18:23:43.810Z,98892.40
2023-03-19T18:26:12.037Z,98898.57
2023-03-19T18:28:40.425Z,98896.92
2023-03-19T18:31:26.699Z,98895.65
2023-03-19T18:33:59.840Z,98896.92
2023-03-19T18:36:31.732Z,98896.00
2023-03-19T18:39:00.395Z,98896.00
2023-03-19T18:41:29.225Z,98898.70
2023-03-19T18:44:07.393Z,98898.79
2023-03-19T18:46:36.783Z,98897.94
2023-03-19T18:49:19.725Z,98896.49
2023-03-19T18:52:01.762Z,98896.48
2023-03-19T18:54:31.697Z,98896.02
2023-03-19T18:57:03.579Z,98895.86
2023-03-19T18:59:33.314Z,98898.27
2023-03-19T19:02:21.258Z,98900.50
2023-03-19T19:04:49.729Z,98898.06
2023-03-19T19:07:18.014Z,98894.86
2023-03-19T19:09:46.765Z,98888.12
2023-03-19T19:12:18.346Z,98887.59
2023-03-19T19:14:47.214Z,98888.14
2023-03-19T19:17:21.529Z,98888.34
2023-03-19T19:19:51.636Z,98891.55
2023-03-19T19:22:20.447Z,98892.54
2023-03-19T19:24:49.002Z,98891.96
2023-03-19T19:27:21.012Z,98891.16
2023-03-19T19:29:51.404Z,98893.23
2023-03-19T19:32:26.679Z,98893.08
2023-03-19T19:34:55.233Z,98894.52
2023-03-19T19:37:29.358Z,98896.53
2023-03-19T19:39:58.328Z,98891.88
2023-03-19T19:42:26.733Z,98890.61
2023-03-19T19:44:56.455Z,98893.83
2023-03-19T19:47:25.076Z,98895.64
2023-03-19T19:49:58.420Z,98895.11
2023-03-19T19:52:31.690Z,98897.69
2023-03-19T19:55:00.108Z,98897.90
2023-03-19T19:57:28.485Z,98894.52
2023-03-19T19:59:57.129Z,98890.07
2023-03-19T20:02:29.378Z,98889.31
2023-03-19T20:04:58.715Z,98884.46
2023-03-19T20:07:27.418Z,98882.45
2023-03-19T20:09:56.306Z,98883.36
2023-03-19T20:12:28.265Z,98887.23
2023-03-19T20:14:57.124Z,98878.91
2023-03-19T20:17:25.715Z,98881.35
2023-03-19T20:19:55.941Z,98883.96
2023-03-19T20:22:24.310Z,98881.83
2023-03-19T20:24:53.193Z,98881.80
2023-03-19T20:27:23.621Z,98878.83
2023-03-19T20:29:53.922Z,98873.16
2023-03-19T20:32:36.142Z,98866.98
2023-03-19T20:35:14.811Z,98868.40
2023-03-19T20:37:43.108Z,98866.38
2023-03-19T20:40:13.006Z,98870.95
2023-03-19T20:42:41.858Z,98869.80
2023-03-19T20:45:15.524Z,98867.88
2023-03-19T20:47:44.743Z,98867.13
2023-03-19T20:50:17.657Z,98868.31
2023-03-19T20:52:49.482Z,98870.34
2023-03-19T20:55:19.912Z,98873.27
2023-03-19T20:57:49.532Z,98874.23
2023-03-19T21:00:23.887Z,98870.64
2023-03-19T21:02:53.085Z,98868.06
2023-03-19T21:05:36.796Z,98866.51
2023-03-19T21:08:16.618Z,98868.66
2023-03-19T21:10:45.793Z,98864.15
2023-03-19T21:13:17.112Z,98865.52
2023-03-19T21:15:47.235Z,98864.84
2023-03-19T21:18:17.202Z,98865.84
2023-03-19T21:20:48.193Z,98864.48
2023-03-19T21:23:37.382Z,98858.73
2023-03-19T21:26:16.847Z,98859.48
2023-03-19T21:28:46.042Z,98856.70
2023-03-19T21:31:18.158Z,98857.21
2023-03-19T21:33:49.246Z,98860.05
2023-03-19T21:36:18.065Z,98859.05
2023-03-19T21:38:46.735Z,98857.03
2023-03-19T21:41:37.423Z,98857.34
2023-03-19T21:44:07.682Z,98862.86
2023-03-19T21:46:36.919Z,98864.17
2023-03-19T21:49:07.738Z,98858.93
2023-03-19T21:51:38.217Z,98864.50
2023-03-19T21:54:06.695Z,98863.59
2023-03-19T21:56:40.396Z,98866.87
2023-03-19T21:59:38.873Z,98861.48
2023-03-19T22:02:23.833Z,98857.73
2023-03-19T22:04:52.426Z,98856.45
2023-03-19T22:07:20.909Z,98857.48
2023-03-19T22:09:50.095Z,98853.73
2023-03-19T22:12:27.808Z,98855.90
2023-03-19T22:14:56.500Z,98848.45
2023-03-19T22:17:26.902Z,98851.14
2023-03-19T22:19:55.182Z,98851.21
2023-03-19T22:22:23.884Z,98848.08
2023-03-19T22:24:56.035Z,98844.86
2023-03-19T22:27:24.342Z,98844.03
2023-03-19T22:29:52.601Z,98838.30
2023-03-19T22:32:21.172Z,98833.29
2023-03-19T22:34:49.624Z,98836.49
2023-03-19T22:37:29.603Z,98836.23
2023-03-19T22:39:57.879Z,98837.45
2023-03-19T22:49:55.697Z,98836.70
2023-03-19T22:52:24.049Z,98830.17
2023-03-19T22:54:54.095Z,98825.61
2023-03-19T22:57:22.756Z,98823.54
2023-03-19T22:59:53.042Z,98827.56
2023-03-19T23:02:24.507Z,98830.09
2023-03-19T23:04:53.230Z,98827.42
2023-03-19T23:07:24.829Z,98823.73
2023-03-19T23:09:57.074Z,98820.42
2023-03-19T23:12:33.892Z,98816.25
2023-03-19T23:15:02.590Z,98817.89
2023-03-19T23:17:31.536Z,98815.84
2023-03-19T23:20:00.189Z,98810.92
2023-03-19T23:22:28.931Z,98805.81
2023-03-19T23:24:58.293Z,98803.80
2023-03-19T23:27:26.991Z,98805.73
2023-03-19T23:29:56.562Z,98799.77
2023-03-19T23:32:29.064Z,98797.20
2023-03-19T23:35:01.429Z,98798.70
2023-03-19T23:37:30.249Z,98791.96
2023-03-19T23:40:01.984Z,98789.66
2023-03-19T23:42:31.815Z,98790.27
2023-03-19T23:45:05.138Z,98783.65
2023-03-19T23:47:33.961Z,98780.81
2023-03-19T23:50:02.433Z,98779.13
2023-03-19T23:52:34.027Z,98772.60
2023-03-19T23:55:03.186Z,98769.33
2023-03-19T23:57:31.560Z,98763.13
